createdAt,value
2018-05-24T00:01:06.345Z,100681.22
2018-05-24T00:03:32.629Z,100677.77
2018-05-24T00:05:58.905Z,100681.73
2018-05-24T00:08:25.183Z,100682.97
2018-05-24T00:10:51.449Z,100679.14
2018-05-24T00:13:48.305Z,100686.27
2018-05-24T00:16:14.561Z,100676.80
2018-05-24T00:18:40.825Z,100682.38
2018-05-24T00:21:07.085Z,100674.55
2018-05-24T00:23:33.341Z,100672.21
2018-05-24T00:26:00.365Z,100675.89
2018-05-24T00:28:26.629Z,100674.37
2018-05-24T00:30:53.658Z,100663.63
2018-05-24T00:33:19.944Z,100659.45
2018-05-24T00:35:46.221Z,100660.78
2018-05-24T00:38:12.494Z,100658.58
2018-05-24T00:40:38.755Z,100651.63
2018-05-24T00:43:05.055Z,100655.95
2018-05-24T00:45:32.089Z,100649.58
2018-05-24T00:47:58.375Z,100650.41
2018-05-24T00:50:24.637Z,100647.77
2018-05-24T00:52:50.886Z,100640.88
2018-05-24T00:55:35.669Z,100638.23
2018-05-24T00:58:01.929Z,100629.14
2018-05-24T01:00:28.203Z,100623.77
2018-05-24T01:02:54.475Z,100624.59
2018-05-24T01:05:21.545Z,100619.50
2018-05-24T01:07:47.820Z,100614.81
2018-05-24T01:10:14.092Z,100621.79
2018-05-24T01:12:41.103Z,100619.26
2018-05-24T01:15:07.431Z,100621.98
2018-05-24T01:17:33.705Z,100631.47
2018-05-24T01:20:00.002Z,100627.34
2018-05-24T01:22:26.258Z,100635.98
2018-05-24T01:24:52.514Z,100644.92
2018-05-24T01:27:18.785Z,100640.47
2018-05-24T01:29:45.112Z,100646.50
2018-05-24T01:32:12.097Z,100648.47
2018-05-24T01:34:38.392Z,100650.13
2018-05-24T01:37:24.075Z,100652.61
2018-05-24T01:39:51.092Z,100660.37
2018-05-24T01:42:17.385Z,100659.45
2018-05-24T01:44:43.634Z,100656.70
2018-05-24T01:47:09.992Z,100663.08
2018-05-24T01:49:36.300Z,100670.02
2018-05-24T01:52:03.333Z,100675.02
2018-05-24T01:54:29.646Z,100678.50
2018-05-24T01:56:55.935Z,100678.64
2018-05-24T01:59:22.240Z,100673.44
2018-05-24T02:01:48.512Z,100682.67
2018-05-24T02:04:14.789Z,100683.81
2018-05-24T02:06:42.195Z,100681.61
2018-05-24T02:09:09.310Z,100685.23
2018-05-24T02:11:36.325Z,100682.50
2018-05-24T02:14:02.611Z,100681.54
2018-05-24T02:16:28.925Z,100681.02
2018-05-24T02:18:55.913Z,100677.30
2018-05-24T02:21:22.162Z,100676.34
2018-05-24T02:23:48.436Z,100673.19
2018-05-24T02:26:14.684Z,100665.61
2018-05-24T02:28:40.979Z,100672.12
2018-05-24T02:31:07.273Z,100663.56
2018-05-24T02:33:34.289Z,100659.56
2018-05-24T02:36:00.701Z,100663.16
2018-05-24T02:38:27.554Z,100663.84
2018-05-24T02:40:53.869Z,100665.36
2018-05-24T02:43:20.149Z,100669.33
2018-05-24T02:45:46.385Z,100668.13
2018-05-24T02:48:12.647Z,100664.50
2018-05-24T02:50:38.897Z,100664.26
2018-05-24T02:53:05.965Z,100661.91
2018-05-24T02:55:32.221Z,100665.50
2018-05-24T02:57:58.529Z,100670.46
2018-05-24T03:00:25.583Z,100666.36
2018-05-24T03:02:51.846Z,100664.42
2018-05-24T03:05:18.085Z,100665.55
2018-05-24T03:07:44.337Z,100663.61
2018-05-24T03:10:10.590Z,100667.50
2018-05-24T03:12:37.619Z,100663.50
2018-05-24T03:15:03.909Z,100657.72
2018-05-24T03:17:30.971Z,100659.66
2018-05-24T03:19:57.243Z,100656.64
2018-05-24T03:22:23.541Z,100655.41
2018-05-24T03:24:49.843Z,100658.57
2018-05-24T03:27:16.144Z,100662.59
2018-05-24T03:29:42.456Z,100663.41
2018-05-24T03:32:08.712Z,100660.13
2018-05-24T03:34:34.992Z,100656.95
2018-05-24T03:37:01.297Z,100656.11
2018-05-24T03:39:27.541Z,100652.41
2018-05-24T03:41:53.853Z,100651.98
2018-05-24T03:44:20.113Z,100643.72
2018-05-24T03:46:46.420Z,100652.27
2018-05-24T03:49:12.746Z,100645.80
2018-05-24T03:51:39.035Z,100644.27
2018-05-24T03:54:05.300Z,100643.73
2018-05-24T03:56:32.334Z,100639.16
2018-05-24T03:59:15.733Z,100640.58
2018-05-24T04:04:57.793Z,100642.23
2018-05-24T04:07:24.058Z,100650.13
2018-05-24T04:09:50.354Z,100646.09
2018-05-24T04:12:17.401Z,100646.67
2018-05-24T04:14:44.433Z,100644.86
2018-05-24T04:17:10.741Z,100653.56
2018-05-24T04:19:37.089Z,100654.27
2018-05-24T04:22:03.416Z,100658.41
2018-05-24T04:24:29.715Z,100665.73
2018-05-24T04:26:56.114Z,100665.72
2018-05-24T04:29:22.376Z,100665.30
2018-05-24T04:31:49.457Z,100673.33
2018-05-24T04:34:15.721Z,100674.56
2018-05-24T04:36:42.030Z,100676.64
2018-05-24T04:39:08.314Z,100673.58
2018-05-24T04:41:35.401Z,100678.45
2018-05-24T04:44:01.700Z,100679.52
2018-05-24T04:46:28.014Z,100670.68
2018-05-24T04:48:54.329Z,100677.05
2018-05-24T04:51:20.605Z,100674.02
2018-05-24T04:53:46.847Z,100678.69
2018-05-24T04:56:13.613Z,100677.45
2018-05-24T04:58:41.178Z,100679.96
2018-05-24T05:01:08.267Z,100679.11
2018-05-24T05:03:34.565Z,100670.67
2018-05-24T05:06:01.593Z,100676.20
2018-05-24T05:08:27.897Z,100670.95
2018-05-24T05:10:54.392Z,100663.88
2018-05-24T05:13:21.511Z,100666.11
2018-05-24T05:15:47.726Z,100668.45
2018-05-24T05:18:13.977Z,100670.66
2018-05-24T05:20:40.277Z,100671.91
2018-05-24T05:23:06.807Z,100665.81
2018-05-24T05:25:33.038Z,100663.20
2018-05-24T05:28:00.209Z,100664.99
2018-05-24T05:30:26.478Z,100676.61
2018-05-24T05:32:52.776Z,100678.39
2018-05-24T05:35:19.065Z,100682.95
2018-05-24T05:37:45.390Z,100687.23
2018-05-24T05:40:11.692Z,100689.17
2018-05-24T05:42:38.002Z,100697.63
2018-05-24T05:45:05.050Z,100699.82
2018-05-24T05:47:31.370Z,100708.39
2018-05-24T05:49:57.669Z,100704.41
2018-05-24T05:52:24.005Z,100712.16
2018-05-24T05:54:50.953Z,100704.81
2018-05-24T05:57:17.298Z,100709.38
2018-05-24T05:59:43.598Z,100704.25
2018-05-24T06:02:13.542Z,100704.38
2018-05-24T06:04:39.994Z,100702.31
2018-05-24T06:07:06.334Z,100700.64
2018-05-24T06:09:32.670Z,100698.72
2018-05-24T06:11:58.942Z,100703.27
2018-05-24T06:14:26.006Z,100702.69
2018-05-24T06:16:52.393Z,100705.47
2018-05-24T06:19:18.669Z,100704.75
2018-05-24T06:21:44.974Z,100706.70
2018-05-24T06:24:11.524Z,100704.90
2018-05-24T06:26:37.786Z,100711.81
2018-05-24T06:29:04.181Z,100712.06
2018-05-24T06:31:30.524Z,100706.38
2018-05-24T06:33:56.829Z,100707.61
2018-05-24T06:36:23.858Z,100709.83
2018-05-24T06:38:50.212Z,100712.03
2018-05-24T06:41:17.221Z,100710.23
2018-05-24T06:43:43.569Z,100708.68
2018-05-24T06:46:09.870Z,100709.23
2018-05-24T06:48:36.133Z,100704.39
2018-05-24T06:51:02.526Z,100710.03
2018-05-24T06:53:28.893Z,100708.50
2018-05-24T06:55:55.185Z,100710.45
2018-05-24T06:58:22.240Z,100710.84
2018-05-24T07:00:49.309Z,100706.95
2018-05-24T07:03:15.610Z,100706.94
2018-05-24T07:05:41.877Z,100705.83
2018-05-24T07:08:08.180Z,100704.84
2018-05-24T07:10:34.471Z,100706.70
2018-05-24T07:13:00.731Z,100697.68
2018-05-24T07:15:27.023Z,100703.70
2018-05-24T07:17:53.278Z,100705.86
2018-05-24T07:20:19.546Z,100710.84
2018-05-24T07:22:45.832Z,100706.37
2018-05-24T07:25:12.135Z,100708.44
2018-05-24T07:27:38.454Z,100709.58
2018-05-24T07:30:04.757Z,100709.79
2018-05-24T07:32:31.084Z,100720.94
2018-05-24T07:34:57.381Z,100714.06
2018-05-24T07:37:23.704Z,100716.42
2018-05-24T07:39:50.119Z,100714.95
2018-05-24T07:42:16.297Z,100721.20
2018-05-24T07:44:43.377Z,100726.03
2018-05-24T07:47:09.653Z,100726.05
2018-05-24T07:49:35.955Z,100725.84
2018-05-24T07:52:02.427Z,100730.64
2018-05-24T07:54:28.657Z,100726.89
2018-05-24T07:56:54.997Z,100726.93
2018-05-24T07:59:21.273Z,100719.09
2018-05-24T08:01:48.373Z,100721.25
2018-05-24T08:04:14.702Z,100723.13
2018-05-24T08:06:40.965Z,100722.61
2018-05-24T08:09:07.253Z,100726.62
2018-05-24T08:11:33.529Z,100729.80
2018-05-24T08:13:59.854Z,100727.16
2018-05-24T08:16:26.141Z,100720.53
2018-05-24T08:18:53.189Z,100726.92
2018-05-24T08:21:19.444Z,100722.61
2018-05-24T08:23:45.746Z,100719.98
2018-05-24T08:26:12.112Z,100721.89
2018-05-24T08:28:38.389Z,100723.75
2018-05-24T08:31:04.665Z,100725.81
2018-05-24T08:33:30.933Z,100726.52
2018-05-24T08:35:57.965Z,100721.26
2018-05-24T08:38:24.986Z,100718.23
2018-05-24T08:40:51.332Z,100714.53
2018-05-24T08:43:17.712Z,100717.81
2018-05-24T08:45:44.074Z,100710.78
2018-05-24T08:48:10.402Z,100717.56
2018-05-24T08:50:36.711Z,100712.41
2018-05-24T08:53:03.002Z,100723.61
2018-05-24T08:55:29.353Z,100725.80
2018-05-24T08:57:56.394Z,100726.05
2018-05-24T09:00:22.801Z,100726.03
2018-05-24T09:02:49.118Z,100724.87
2018-05-24T09:05:16.137Z,100732.27
2018-05-24T09:07:42.458Z,100722.66
2018-05-24T09:10:08.728Z,100727.03
2018-05-24T09:12:35.010Z,100721.06
2018-05-24T09:15:01.306Z,100726.30
2018-05-24T09:17:28.300Z,100727.73
2018-05-24T09:19:54.578Z,100723.59
2018-05-24T09:22:20.893Z,100721.28
2018-05-24T09:24:47.209Z,100721.97
2018-05-24T09:27:13.514Z,100728.09
2018-05-24T09:29:40.517Z,100730.33
2018-05-24T09:32:06.797Z,100726.92
2018-05-24T09:34:33.808Z,100733.19
2018-05-24T09:37:00.101Z,100733.03
2018-05-24T09:39:26.406Z,100735.20
2018-05-24T09:41:52.753Z,100733.86
2018-05-24T09:44:19.808Z,100736.23
2018-05-24T09:46:46.846Z,100738.78
2018-05-24T09:49:13.171Z,100742.72
2018-05-24T09:51:39.463Z,100740.97
2018-05-24T09:54:05.746Z,100738.63
2018-05-24T09:56:32.019Z,100740.12
2018-05-24T09:58:59.032Z,100740.79
2018-05-24T10:01:25.310Z,100729.23
2018-05-24T10:03:51.559Z,100737.89
2018-05-24T10:06:17.842Z,100734.48
2018-05-24T10:08:44.112Z,100725.64
2018-05-24T10:11:10.379Z,100731.41
2018-05-24T10:13:36.643Z,100727.06
2018-05-24T10:16:02.981Z,100733.28
2018-05-24T10:18:29.264Z,100731.05
2018-05-24T10:20:55.561Z,100733.62
2018-05-24T10:23:21.822Z,100730.36
2018-05-24T10:25:48.853Z,100728.34
2018-05-24T10:28:15.133Z,100729.59
2018-05-24T10:30:41.404Z,100730.93
2018-05-24T10:33:07.714Z,100732.17
2018-05-24T10:35:34.026Z,100733.11
2018-05-24T10:38:01.034Z,100731.81
2018-05-24T10:40:27.349Z,100728.12
2018-05-24T10:42:53.657Z,100724.23
2018-05-24T10:45:19.961Z,100721.09
2018-05-24T10:47:46.221Z,100718.20
2018-05-24T10:50:13.289Z,100725.98
2018-05-24T10:52:39.584Z,100722.03
2018-05-24T10:55:05.898Z,100718.48
2018-05-24T10:57:32.209Z,100712.50
2018-05-24T10:59:58.501Z,100716.07
2018-05-24T11:02:25.602Z,100713.19
2018-05-24T11:04:52.729Z,100717.20
2018-05-24T11:07:19.068Z,100722.60
2018-05-24T11:09:46.083Z,100718.02
2018-05-24T11:12:12.338Z,100713.25
2018-05-24T11:14:39.418Z,100714.05
2018-05-24T11:17:05.711Z,100713.64
2018-05-24T11:19:31.961Z,100714.17
2018-05-24T11:21:59.007Z,100719.66
2018-05-24T11:24:25.361Z,100720.17
2018-05-24T11:26:52.377Z,100713.02
2018-05-24T11:29:18.672Z,100709.88
2018-05-24T11:31:45.014Z,100714.66
2018-05-24T11:34:11.314Z,100708.83
2018-05-24T11:36:38.381Z,100705.64
2018-05-24T11:39:06.373Z,100703.02
2018-05-24T11:41:32.709Z,100693.78
2018-05-24T11:43:58.963Z,100703.91
2018-05-24T11:46:25.482Z,100696.89
2018-05-24T11:48:51.811Z,100692.96
2018-05-24T11:51:18.133Z,100702.78
2018-05-24T11:53:45.126Z,100692.66
2018-05-24T11:56:12.642Z,100697.13
2018-05-24T11:58:38.954Z,100691.74
2018-05-24T12:01:05.239Z,100688.94
2018-05-24T12:03:31.634Z,100686.16
2018-05-24T12:05:57.944Z,100685.84
2018-05-24T12:08:24.287Z,100685.63
2018-05-24T12:10:50.606Z,100676.44
2018-05-24T12:13:16.913Z,100671.37
2018-05-24T12:15:43.897Z,100667.91
2018-05-24T12:18:10.213Z,100667.42
2018-05-24T12:20:36.497Z,100662.68
2018-05-24T12:23:02.837Z,100660.80
2018-05-24T12:25:29.137Z,100661.21
2018-05-24T12:27:55.407Z,100658.74
2018-05-24T12:30:21.713Z,100656.81
2018-05-24T12:32:47.998Z,100660.98
2018-05-24T12:35:14.347Z,100652.27
2018-05-24T12:37:43.422Z,100655.08
2018-05-24T12:40:09.735Z,100653.55
2018-05-24T12:42:36.042Z,100653.55
2018-05-24T12:45:02.313Z,100650.14
2018-05-24T12:47:29.465Z,100650.92
2018-05-24T12:49:56.226Z,100646.20
2018-05-24T12:52:22.734Z,100645.14
2018-05-24T12:54:54.257Z,100638.95
2018-05-24T12:57:20.622Z,100632.98
2018-05-24T12:59:46.885Z,100630.35
2018-05-24T13:02:13.160Z,100628.31
2018-05-24T13:04:39.458Z,100631.64
2018-05-24T13:07:12.811Z,100620.28
2018-05-24T13:09:39.090Z,100617.37
2018-05-24T13:12:05.384Z,100617.63
2018-05-24T13:14:31.898Z,100605.26
2018-05-24T13:16:59.040Z,100613.02
2018-05-24T13:19:25.443Z,100610.78
2018-05-24T13:21:52.213Z,100608.88
2018-05-24T13:24:19.332Z,100607.33
2018-05-24T13:26:45.595Z,100601.98
2018-05-24T13:29:11.899Z,100598.73
2018-05-24T13:31:38.214Z,100600.77
2018-05-24T13:34:05.303Z,100592.91
2018-05-24T13:36:31.533Z,100586.55
2018-05-24T13:38:57.822Z,100587.11
2018-05-24T13:41:24.133Z,100584.82
2018-05-24T13:43:50.404Z,100589.70
2018-05-24T13:46:17.447Z,100593.64
2018-05-24T13:48:43.721Z,100588.47
2018-05-24T13:51:09.974Z,100580.53
2018-05-24T13:53:36.233Z,100579.98
2018-05-24T13:56:02.553Z,100574.20
2018-05-24T13:58:28.832Z,100571.63
2018-05-24T14:00:55.097Z,100582.73
2018-05-24T14:03:21.384Z,100575.81
2018-05-24T14:05:47.694Z,100579.11
2018-05-24T14:08:14.024Z,100578.08
2018-05-24T14:10:40.345Z,100572.55
2018-05-24T14:13:06.642Z,100570.59
2018-05-24T14:15:32.912Z,100568.80
2018-05-24T14:17:59.216Z,100567.77
2018-05-24T14:20:25.541Z,100564.77
2018-05-24T14:22:51.852Z,100562.70
2018-05-24T14:25:18.175Z,100566.29
2018-05-24T14:27:44.410Z,100568.22
2018-05-24T14:30:10.787Z,100562.19
2018-05-24T14:32:37.091Z,100560.38
2018-05-24T14:35:03.391Z,100552.97
2018-05-24T14:37:30.475Z,100552.81
2018-05-24T14:39:56.765Z,100550.70
2018-05-24T14:42:23.106Z,100554.17
2018-05-24T14:44:50.161Z,100554.55
2018-05-24T14:47:17.166Z,100556.59
2018-05-24T14:49:43.574Z,100551.69
2018-05-24T14:52:09.905Z,100543.69
2018-05-24T14:54:36.974Z,100548.27
2018-05-24T14:57:03.300Z,100547.16
2018-05-24T14:59:30.343Z,100535.98
2018-05-24T15:02:00.203Z,100535.99
2018-05-24T15:04:27.252Z,100539.88
2018-05-24T15:06:53.537Z,100536.63
2018-05-24T15:09:20.550Z,100533.23
2018-05-24T15:11:46.807Z,100531.34
2018-05-24T15:14:14.558Z,100526.38
2018-05-24T15:16:40.838Z,100537.95
2018-05-24T15:19:07.874Z,100538.66
2018-05-24T15:21:34.218Z,100538.23
2018-05-24T15:24:00.452Z,100534.02
2018-05-24T15:26:26.685Z,100541.63
2018-05-24T15:28:53.009Z,100540.64
2018-05-24T15:31:19.281Z,100539.53
2018-05-24T15:33:45.593Z,100540.12
2018-05-24T15:36:11.870Z,100541.39
2018-05-24T15:38:38.133Z,100535.48
2018-05-24T15:41:04.464Z,100528.61
2018-05-24T15:43:30.773Z,100529.34
2018-05-24T15:45:57.057Z,100526.53
2018-05-24T15:48:23.422Z,100530.18
2018-05-24T15:50:50.425Z,100532.93
2018-05-24T15:53:16.667Z,100532.93
2018-05-24T15:55:42.980Z,100529.60
2018-05-24T15:58:09.999Z,100533.89
2018-05-24T16:00:37.043Z,100530.70
2018-05-24T16:03:03.343Z,100537.52
2018-05-24T16:05:30.483Z,100528.60
2018-05-24T16:07:57.746Z,100523.84
2018-05-24T16:10:24.090Z,100525.02
2018-05-24T16:12:50.402Z,100524.01
2018-05-24T16:15:16.714Z,100516.38
2018-05-24T16:17:43.822Z,100516.07
2018-05-24T16:20:10.165Z,100518.53
2018-05-24T16:22:36.458Z,100519.06
2018-05-24T16:25:02.785Z,100520.94
2018-05-24T16:27:29.856Z,100513.84
2018-05-24T16:29:56.161Z,100518.45
2018-05-24T16:32:23.190Z,100515.72
2018-05-24T16:34:51.002Z,100519.56
2018-05-24T16:37:18.058Z,100518.64
2018-05-24T16:39:44.363Z,100517.09
2018-05-24T16:42:10.705Z,100513.52
2018-05-24T16:44:37.012Z,100510.06
2018-05-24T16:47:03.361Z,100506.72
2018-05-24T16:49:29.663Z,100513.38
2018-05-24T16:51:55.959Z,100512.13
2018-05-24T16:54:23.120Z,100519.63
2018-05-24T16:56:49.362Z,100515.48
2018-05-24T16:59:16.399Z,100514.08
2018-05-24T17:01:43.488Z,100512.16
2018-05-24T17:04:09.841Z,100511.25
2018-05-24T17:06:36.081Z,100508.31
2018-05-24T17:09:02.414Z,100504.28
2018-05-24T17:11:28.690Z,100507.59
2018-05-24T17:13:55.039Z,100509.27
2018-05-24T17:16:22.076Z,100508.89
2018-05-24T17:18:49.154Z,100506.69
2018-05-24T17:21:15.368Z,100514.52
2018-05-24T17:23:41.654Z,100510.87
2018-05-24T17:26:07.914Z,100511.89
2018-05-24T17:28:34.186Z,100518.48
2018-05-24T17:31:01.229Z,100518.69
2018-05-24T17:33:27.539Z,100516.55
2018-05-24T17:35:53.817Z,100518.48
2018-05-24T17:38:20.911Z,100516.75
2018-05-24T17:40:47.215Z,100519.50
2018-05-24T17:43:14.274Z,100520.46
2018-05-24T17:45:41.305Z,100518.74
2018-05-24T17:48:08.402Z,100512.44
2018-05-24T17:50:34.715Z,100516.80
2018-05-24T17:53:01.736Z,100514.92
2018-05-24T17:55:28.037Z,100516.41
2018-05-24T17:57:54.340Z,100511.91
2018-05-24T18:00:21.357Z,100520.52
2018-05-24T18:02:47.630Z,100517.91
2018-05-24T18:05:14.662Z,100517.70
2018-05-24T18:07:40.963Z,100525.69
2018-05-24T18:10:07.279Z,100521.48
2018-05-24T18:12:33.538Z,100521.73
2018-05-24T18:14:59.839Z,100524.67
2018-05-24T18:17:26.215Z,100521.63
2018-05-24T18:19:52.595Z,100525.31
2018-05-24T18:22:19.575Z,100533.20
2018-05-24T18:24:45.896Z,100536.16
2018-05-24T18:27:12.271Z,100529.45
2018-05-24T18:29:38.566Z,100531.27
2018-05-24T18:32:07.946Z,100535.04
2018-05-24T18:34:36.057Z,100532.35
2018-05-24T18:37:02.423Z,100530.71
2018-05-24T18:39:28.684Z,100531.38
2018-05-24T18:41:56.471Z,100535.84
2018-05-24T18:44:22.801Z,100539.60
2018-05-24T18:46:54.743Z,100543.52
2018-05-24T18:49:21.745Z,100544.12
2018-05-24T18:51:48.785Z,100544.11
2018-05-24T18:54:16.973Z,100550.77
2018-05-24T18:56:43.289Z,100555.36
2018-05-24T18:59:12.173Z,100559.09
2018-05-24T19:01:44.437Z,100561.80
2018-05-24T19:04:11.632Z,100569.06
2018-05-24T19:06:38.658Z,100560.88
2018-05-24T19:09:06.972Z,100561.53
2018-05-24T19:11:33.525Z,100559.81
2018-05-24T19:13:59.849Z,100562.13
2018-05-24T19:16:26.866Z,100570.70
2018-05-24T19:18:54.030Z,100566.16
2018-05-24T19:21:20.346Z,100570.50
2018-05-24T19:23:46.651Z,100571.97
2018-05-24T19:26:12.923Z,100580.77
2018-05-24T19:28:39.226Z,100581.66
2018-05-24T19:31:05.528Z,100582.80
2018-05-24T19:33:31.891Z,100581.16
2018-05-24T19:35:58.226Z,100584.14
2018-05-24T19:38:24.637Z,100594.78
2018-05-24T19:40:51.692Z,100594.02
2018-05-24T19:43:18.748Z,100595.00
2018-05-24T19:45:45.858Z,100602.45
2018-05-24T19:48:12.182Z,100603.77
2018-05-24T19:50:38.475Z,100607.68
2018-05-24T19:53:05.528Z,100599.55
2018-05-24T19:55:31.785Z,100602.34
2018-05-24T19:57:58.066Z,100606.34
2018-05-24T20:00:24.371Z,100606.50
2018-05-24T20:02:50.738Z,100609.48
2018-05-24T20:05:18.308Z,100615.33
2018-05-24T20:07:45.872Z,100611.13
2018-05-24T20:10:12.725Z,100613.97
2018-05-24T20:12:39.572Z,100613.86
2018-05-24T20:15:09.178Z,100605.73
2018-05-24T20:17:35.930Z,100611.84
2018-05-24T20:20:02.719Z,100619.72
2018-05-24T20:22:29.525Z,100617.08
2018-05-24T20:24:56.367Z,100620.06
2018-05-24T20:27:23.118Z,100616.24
2018-05-24T20:29:50.689Z,100625.09
2018-05-24T20:32:17.534Z,100623.22
2018-05-24T20:34:44.271Z,100629.66
2018-05-24T20:37:13.779Z,100623.75
2018-05-24T20:39:40.532Z,100620.37
2018-05-24T20:42:07.014Z,100623.22
2018-05-24T20:44:34.171Z,100620.06
2018-05-24T20:47:01.453Z,100616.06
2018-05-24T20:49:27.869Z,100614.97
2018-05-24T20:51:54.210Z,100614.70
2018-05-24T20:54:20.564Z,100611.81
2018-05-24T20:56:46.892Z,100607.31
2018-05-24T20:59:13.243Z,100617.45
2018-05-24T21:01:39.576Z,100612.00
2018-05-24T21:04:05.898Z,100608.36
2018-05-24T21:06:32.245Z,100615.61
2018-05-24T21:08:58.597Z,100616.72
2018-05-24T21:11:24.927Z,100605.91
2018-05-24T21:13:51.323Z,100615.50
2018-05-24T21:16:17.593Z,100616.11
2018-05-24T21:18:44.033Z,100617.10
2018-05-24T21:21:10.354Z,100616.27
2018-05-24T21:23:36.681Z,100611.73
2018-05-24T21:26:03.759Z,100609.87
2018-05-24T21:28:30.553Z,100606.00
2018-05-24T21:30:57.101Z,100605.81
2018-05-24T21:33:24.161Z,100604.77
2018-05-24T21:35:50.714Z,100614.37
2018-05-24T21:38:23.332Z,100617.57
2018-05-24T21:40:50.007Z,100614.54
2018-05-24T21:43:16.315Z,100609.81
2018-05-24T21:45:42.656Z,100612.98
2018-05-24T21:48:08.947Z,100613.70
2018-05-24T21:50:36.002Z,100612.25
2018-05-24T21:53:03.073Z,100619.03
2018-05-24T21:55:29.385Z,100616.80
2018-05-24T21:57:56.454Z,100613.46
2018-05-24T22:00:26.828Z,100613.36
2018-05-24T22:02:53.150Z,100607.42
2018-05-24T22:05:19.474Z,100618.09
2018-05-24T22:07:45.777Z,100620.16
2018-05-24T22:10:12.095Z,100620.63
2018-05-24T22:12:38.397Z,100623.52
2018-05-24T22:15:04.765Z,100618.56
2018-05-24T22:17:31.074Z,100625.89
2018-05-24T22:19:57.383Z,100633.22
2018-05-24T22:22:23.697Z,100632.10
2018-05-24T22:24:50.763Z,100633.79
2018-05-24T22:27:17.090Z,100637.65
2018-05-24T22:29:44.141Z,100638.34
2018-05-24T22:32:11.235Z,100634.22
2018-05-24T22:34:37.544Z,100645.25
2018-05-24T22:37:04.609Z,100638.77
2018-05-24T22:39:30.924Z,100645.81
2018-05-24T22:41:57.996Z,100645.55
2018-05-24T22:44:25.015Z,100643.75
2018-05-24T22:46:51.309Z,100641.42
2018-05-24T22:49:17.721Z,100640.58
2018-05-24T22:51:44.750Z,100639.63
2018-05-24T22:54:12.473Z,100637.13
2018-05-24T22:56:38.793Z,100643.77
2018-05-24T22:59:05.155Z,100641.92
2018-05-24T23:01:31.465Z,100642.48
2018-05-24T23:03:57.737Z,100644.27
2018-05-24T23:06:24.021Z,100635.86
2018-05-24T23:08:50.285Z,100632.39
2018-05-24T23:11:16.539Z,100638.48
2018-05-24T23:13:42.866Z,100640.41
2018-05-24T23:16:09.186Z,100637.23
2018-05-24T23:18:35.478Z,100634.98
2018-05-24T23:21:01.777Z,100635.67
2018-05-24T23:23:28.103Z,100634.57
2018-05-24T23:25:54.410Z,100639.00
2018-05-24T23:28:21.482Z,100635.12
2018-05-24T23:30:47.774Z,100633.19
2018-05-24T23:33:14.027Z,100636.23
2018-05-24T23:35:41.078Z,100629.73
2018-05-24T23:38:08.084Z,100628.23
2018-05-24T23:40:34.344Z,100626.16
2018-05-24T23:43:00.664Z,100625.73
2018-05-24T23:45:26.976Z,100629.16
2018-05-24T23:47:53.263Z,100629.16
2018-05-24T23:50:19.543Z,100621.14
2018-05-24T23:52:45.833Z,100629.53
2018-05-24T23:55:12.106Z,100627.03
2018-05-24T23:57:38.391Z,100630.75
